Decoded Metar for KSOP (SOUTHERN PINES in NC, USA) (IATA:SOP) | Meteo·Mobile Aviation Weather
aviador You're here:

KSOP Decoded Metar

SOUTHERN PINES in NC, USA
Report Time2018-12-16 09:56:00
UTC Time2018-12-16 10:47:28
Flight Rules mvfr MVFR
Wind240° at 08 kt
W.Decomp.*RWY 23: 7.6 kt HW 2.5 kt RCW
W.Rank240° ranks 4
Current wind is above 240° avg. (6.8)
Visibility9999 m
Phenomena:N/A
Clouds:Overcast 010 Hf
Ceiling1,000 ft
Temp08°C (ISA -6)
Dew Point08°C (100% RH)
AAT4.7°C
QNH1014 hPa
Density Alt-154 ft
Elevation463 ft
Report Wrong Elevation
Raw Report
METAR KSOP 160956Z AUTO 24008KT 10SM OVC010 08/08 A2993 RMK AO2 CIG
009V013 SLP155 T00830078=

Extra information for KSOP:More info

Metar Taf Metar & Taf Last 4 Metars F.Rules Stats Wind Profile Meteogram Temp Stats Airport Information Weather charts Add Link Nearby VenuesMetar ALERT Operation Metar Decoded Social comments

AIRNAV info for KSOP